Time;durP1;ratioP1;P1;durP2;ratioP2;P2;SDS_P1;SDS_P2;PMS_P1;PMS_P2;Temp;Humidity;BMP_temperature;BMP_pressure;BME280_temperature;BME280_humidity;BME280_pressure;Samples;Min_cycle;Max_cycle;Signal;HPM_P1;HPM_P2
2022/06/08 00:02:04;;;;;;;22.65;15.63;;;15.80;99.90;;;;;;5070028;27;40127;-75
2022/06/08 00:04:31;;;;;;;20.85;16.58;;;15.80;99.90;;;;;;5076516;28;35215;-74
2022/06/08 00:06:57;;;;;;;24.60;16.30;;;15.80;99.90;;;;;;5081074;28;37805;-75
2022/06/08 00:09:23;;;;;;;24.77;17.38;;;15.80;99.90;;;;;;5078012;27;38856;-75
2022/06/08 00:11:49;;;;;;;26.73;19.13;;;15.80;99.90;;;;;;5082859;27;38180;-76
2022/06/08 00:14:16;;;;;;;28.98;19.00;;;15.70;99.90;;;;;;5058234;27;39350;-74
2022/06/08 00:16:42;;;;;;;27.27;19.95;;;15.80;99.90;;;;;;5072327;27;38895;-75
2022/06/08 00:19:09;;;;;;;27.48;20.15;;;15.80;99.90;;;;;;5074839;27;38532;-75
2022/06/08 00:21:35;;;;;;;25.52;20.77;;;15.80;99.90;;;;;;5069652;27;39853;-75
2022/06/08 00:24:02;;;;;;;27.38;20.15;;;15.80;99.90;;;;;;5057869;28;39435;-76
2022/06/08 00:26:28;;;;;;;27.38;20.95;;;15.80;99.90;;;;;;5071547;27;36623;-75
2022/06/08 00:28:54;;;;;;;30.13;21.92;;;15.70;99.90;;;;;;5074713;27;40349;-75
2022/06/08 00:31:20;;;;;;;26.75;20.73;;;15.70;99.90;;;;;;5074130;27;38910;-75
2022/06/08 00:33:47;;;;;;;30.65;21.83;;;15.70;99.90;;;;;;5074594;27;39559;-76
2022/06/08 00:36:14;;;;;;;29.58;21.42;;;15.80;99.90;;;;;;5079172;27;37340;-75
2022/06/08 00:38:40;;;;;;;26.10;21.48;;;15.80;99.90;;;;;;5074592;27;39365;-75
2022/06/08 00:41:15;;;;;;;31.00;21.98;;;15.80;99.90;;;;;;5057524;28;38854;-75
2022/06/08 00:43:42;;;;;;;24.33;19.13;;;15.80;99.90;;;;;;5056298;28;40089;-74
2022/06/08 00:46:09;;;;;;;24.30;19.75;;;15.80;99.90;;;;;;5056330;28;38220;-75
2022/06/08 00:48:41;;;;;;;26.02;18.42;;;15.80;99.90;;;;;;5051665;28;39783;-75
2022/06/08 00:51:07;;;;;;;23.73;19.20;;;15.80;99.90;;;;;;5050218;28;38668;-75
2022/06/08 00:53:50;;;;;;;23.05;18.52;;;15.80;99.90;;;;;;5052675;27;38021;-75
2022/06/08 00:56:18;;;;;;;21.77;17.42;;;15.80;99.90;;;;;;5054137;27;37790;-75
2022/06/08 00:58:45;;;;;;;22.77;15.82;;;15.70;99.90;;;;;;5050966;27;41536;-74
2022/06/08 01:01:12;;;;;;;19.13;14.75;;;15.80;99.90;;;;;;5056732;28;39322;-75
2022/06/08 01:03:38;;;;;;;20.75;14.82;;;15.80;99.90;;;;;;5053532;27;39040;-76
2022/06/08 01:06:24;;;;;;;19.23;14.18;;;15.80;99.90;;;;;;5056610;28;38239;-75
2022/06/08 01:08:54;;;;;;;17.02;14.93;;;15.80;99.90;;;;;;5056064;28;39166;-75
2022/06/08 01:11:31;;;;;;;17.75;14.60;;;15.80;99.90;;;;;;5054419;28;38809;-75
2022/06/08 01:14:00;;;;;;;18.02;13.85;;;15.70;99.90;;;;;;5051442;27;38813;-75
2022/06/08 01:16:26;;;;;;;16.45;12.80;;;15.70;99.90;;;;;;5053508;28;40565;-75
2022/06/08 01:18:54;;;;;;;16.33;12.48;;;15.70;99.90;;;;;;5063385;27;38119;-76
2022/06/08 01:21:20;;;;;;;15.32;12.25;;;15.60;99.90;;;;;;5081238;27;38385;-75
2022/06/08 01:23:52;;;;;;;16.92;11.63;;;15.60;99.90;;;;;;5094056;27;38891;-75
2022/06/08 01:26:40;;;;;;;13.30;11.63;;;15.50;99.90;;;;;;5063803;27;37666;-75
2022/06/08 01:29:29;;;;;;;15.32;12.35;;;15.50;99.90;;;;;;5061294;28;39607;-75
2022/06/08 01:32:13;;;;;;;11.45;9.98;;;15.40;99.90;;;;;;5067555;27;39778;-75
2022/06/08 01:35:17;;;;;;;13.27;9.63;;;15.40;99.90;;;;;;5069452;27;48434;-75
2022/06/08 01:37:52;;;;;;;12.85;8.93;;;15.30;99.90;;;;;;5070994;28;48889;-76
2022/06/08 01:40:36;;;;;;;11.95;9.38;;;15.30;99.90;;;;;;5071341;27;39666;-75
2022/06/08 01:43:26;;;;;;;10.20;8.05;;;15.30;99.90;;;;;;5077978;28;39930;-73
2022/06/08 01:46:21;;;;;;;10.85;8.05;;;15.30;99.90;;;;;;5078968;27;48756;-73
2022/06/08 01:49:06;;;;;;;13.10;8.18;;;15.30;99.90;;;;;;5070884;28;47143;-73
2022/06/08 01:52:02;;;;;;;9.25;8.23;;;15.30;99.90;;;;;;5079712;27;48439;-74
2022/06/08 01:54:52;;;;;;;10.90;7.75;;;15.30;99.90;;;;;;5068203;27;48849;-75
2022/06/08 01:57:46;;;;;;;9.48;7.07;;;15.30;99.90;;;;;;5072964;27;39061;-73
2022/06/08 02:00:27;;;;;;;13.18;8.68;;;15.20;99.90;;;;;;5061455;27;36802;-73
2022/06/08 02:03:01;;;;;;;10.68;6.55;;;15.20;99.90;;;;;;5051099;28;39480;-76
2022/06/08 02:05:33;;;;;;;8.95;6.40;;;15.20;99.90;;;;;;5076569;28;40435;-73
2022/06/08 02:08:11;;;;;;;9.02;6.50;;;15.20;99.90;;;;;;5106701;27;39551;-73
2022/06/08 02:11:04;;;;;;;10.15;6.47;;;15.20;99.90;;;;;;5077189;27;47906;-75
2022/06/08 02:13:40;;;;;;;8.82;5.57;;;15.20;99.90;;;;;;5066132;27;49148;-73
2022/06/08 02:16:17;;;;;;;10.70;5.90;;;15.20;99.90;;;;;;5092210;27;38716;-75
2022/06/08 02:18:53;;;;;;;10.60;5.57;;;15.20;99.90;;;;;;5104102;27;38818;-73
2022/06/08 02:21:26;;;;;;;7.38;4.97;;;15.20;99.90;;;;;;5081206;27;37294;-73
2022/06/08 02:23:56;;;;;;;7.72;5.00;;;15.30;99.90;;;;;;5075090;27;38684;-74
2022/06/08 02:26:32;;;;;;;9.40;5.25;;;15.30;99.90;;;;;;5058869;28;39078;-74
2022/06/08 02:29:08;;;;;;;8.32;4.63;;;15.30;99.90;;;;;;5066497;28;38079;-74
2022/06/08 02:31:47;;;;;;;7.65;5.05;;;15.30;99.90;;;;;;5077545;28;47535;-74
2022/06/08 02:34:31;;;;;;;9.30;4.63;;;15.40;99.90;;;;;;5075841;27;39752;-73
2022/06/08 02:37:23;;;;;;;6.28;4.55;;;15.40;99.90;;;;;;5083171;28;38723;-74
2022/06/08 02:39:59;;;;;;;9.70;4.90;;;15.40;99.90;;;;;;5084807;27;48977;-74
2022/06/08 02:42:28;;;;;;;4.50;3.85;;;15.40;99.90;;;;;;5098477;27;38936;-74
2022/06/08 02:45:02;;;;;;;6.38;3.90;;;15.40;99.90;;;;;;5056249;28;38824;-74
2022/06/08 02:47:33;;;;;;;4.72;3.65;;;15.40;99.90;;;;;;5076334;28;46751;-74
2022/06/08 02:50:21;;;;;;;6.55;3.60;;;15.40;99.90;;;;;;5070422;27;39520;-74
2022/06/08 02:52:49;;;;;;;5.97;3.92;;;15.30;99.90;;;;;;5067976;27;48893;-74
2022/06/08 02:55:23;;;;;;;8.13;4.45;;;15.30;99.90;;;;;;5070111;28;39279;-74
2022/06/08 02:57:53;;;;;;;7.65;3.97;;;15.30;99.90;;;;;;5072771;27;39349;-74
2022/06/08 03:00:27;;;;;;;5.88;3.33;;;15.30;99.90;;;;;;5074036;27;40157;-74
2022/06/08 03:03:03;;;;;;;5.68;3.33;;;15.30;99.90;;;;;;5063795;27;37160;-74
2022/06/08 03:05:37;;;;;;;4.05;2.97;;;15.30;99.90;;;;;;5068177;27;48846;-74
2022/06/08 03:08:15;;;;;;;5.32;3.72;;;15.30;99.90;;;;;;5066271;27;39451;-74
2022/06/08 03:10:42;;;;;;;5.85;3.55;;;15.30;99.90;;;;;;5057977;28;39069;-73
2022/06/08 03:13:18;;;;;;;8.43;3.45;;;15.30;99.90;;;;;;5057683;27;38304;-74
2022/06/08 03:16:00;;;;;;;6.00;3.58;;;15.40;99.90;;;;;;5061338;28;38675;-73
2022/06/08 03:18:28;;;;;;;4.75;3.10;;;15.30;99.90;;;;;;5083630;27;48313;-74
2022/06/08 03:20:55;;;;;;;8.27;3.20;;;15.30;99.90;;;;;;5079551;28;38655;-75
2022/06/08 03:23:21;;;;;;;4.85;2.65;;;15.30;99.90;;;;;;5072516;27;37916;-74
2022/06/08 03:25:48;;;;;;;6.20;2.88;;;15.40;99.90;;;;;;5075032;28;39457;-74
2022/06/08 03:28:15;;;;;;;5.15;2.88;;;15.40;99.90;;;;;;5067074;27;38939;-74
2022/06/08 03:30:42;;;;;;;6.75;3.30;;;15.40;99.90;;;;;;5063010;27;38235;-74
2022/06/08 03:33:09;;;;;;;5.28;3.10;;;15.40;99.90;;;;;;5059902;27;37896;-74
2022/06/08 03:35:37;;;;;;;8.95;3.05;;;15.40;99.90;;;;;;5102338;27;39339;-74
2022/06/08 03:38:04;;;;;;;5.85;3.20;;;15.40;99.90;;;;;;5073471;27;39183;-74
2022/06/08 03:40:31;;;;;;;6.50;2.85;;;15.40;99.90;;;;;;5073117;27;38903;-74
2022/06/08 03:42:57;;;;;;;6.90;3.58;;;15.40;99.90;;;;;;5061396;27;35726;-74
2022/06/08 03:45:25;;;;;;;4.57;2.25;;;15.50;99.90;;;;;;5053895;28;39569;-74
2022/06/08 03:47:53;;;;;;;2.83;2.40;;;15.50;99.90;;;;;;5052941;28;38322;-73
2022/06/08 03:50:24;;;;;;;5.10;2.58;;;15.50;99.90;;;;;;5051844;28;38480;-76
2022/06/08 03:52:57;;;;;;;4.90;2.75;;;15.50;99.90;;;;;;5055304;28;37898;-73
2022/06/08 03:55:26;;;;;;;4.80;2.38;;;15.50;99.90;;;;;;5065795;27;40662;-75
2022/06/08 03:57:52;;;;;;;3.28;2.40;;;15.60;99.90;;;;;;5084581;27;38687;-75
2022/06/08 04:00:20;;;;;;;4.10;2.03;;;15.60;99.90;;;;;;5075686;27;37522;-75
2022/06/08 04:02:47;;;;;;;4.55;2.55;;;15.60;99.90;;;;;;5071769;27;36852;-75
2022/06/08 04:05:14;;;;;;;4.30;2.40;;;15.60;99.90;;;;;;5077711;27;40805;-73
2022/06/08 04:07:41;;;;;;;3.67;2.70;;;15.60;99.90;;;;;;5060148;27;38834;-73
2022/06/08 04:10:07;;;;;;;4.97;2.85;;;15.60;99.90;;;;;;5056127;27;39230;-73
2022/06/08 04:12:34;;;;;;;6.70;2.60;;;15.60;99.90;;;;;;5066417;27;36700;-73
2022/06/08 04:15:00;;;;;;;2.83;2.45;;;15.60;99.90;;;;;;5076769;28;38110;-74
2022/06/08 04:17:26;;;;;;;5.22;3.10;;;15.50;99.90;;;;;;5089323;27;39099;-74
2022/06/08 04:19:52;;;;;;;5.18;2.70;;;15.60;99.90;;;;;;5054112;28;37698;-77
2022/06/08 04:22:20;;;;;;;5.55;2.90;;;15.60;99.90;;;;;;5055925;28;38078;-73
2022/06/08 04:24:47;;;;;;;7.30;2.95;;;15.50;99.90;;;;;;5073449;28;40100;-73
2022/06/08 04:27:13;;;;;;;3.60;2.95;;;15.60;99.90;;;;;;5076388;27;39685;-74
2022/06/08 04:29:40;;;;;;;5.15;3.05;;;15.60;99.90;;;;;;5072328;27;38797;-74
2022/06/08 04:32:09;;;;;;;4.05;3.03;;;15.50;99.90;;;;;;5056284;27;36939;-74
2022/06/08 04:34:37;;;;;;;3.63;3.25;;;15.50;99.90;;;;;;5056591;27;39429;-74
2022/06/08 04:37:03;;;;;;;4.65;3.20;;;15.50;99.90;;;;;;5075850;27;38092;-74
2022/06/08 04:39:29;;;;;;;7.22;3.10;;;15.50;99.90;;;;;;5067770;27;36832;-74
2022/06/08 04:41:56;;;;;;;6.28;3.15;;;15.60;99.90;;;;;;5068780;28;38289;-75
2022/06/08 04:44:22;;;;;;;4.13;2.80;;;15.60;99.90;;;;;;5063812;27;38653;-74
2022/06/08 04:46:50;;;;;;;5.30;2.65;;;15.60;99.90;;;;;;5066490;28;20045;-74
2022/06/08 04:49:17;;;;;;;4.88;2.88;;;15.70;99.90;;;;;;5055075;28;38754;-74
2022/06/08 04:51:43;;;;;;;7.75;3.33;;;15.80;99.90;;;;;;5055975;28;38020;-74
2022/06/08 04:54:09;;;;;;;4.50;3.53;;;15.70;99.90;;;;;;5055082;28;40494;-74
2022/06/08 04:56:35;;;;;;;5.45;3.63;;;15.70;99.90;;;;;;5053239;28;39037;-74
2022/06/08 04:59:02;;;;;;;5.53;3.55;;;15.70;99.90;;;;;;5068435;28;39138;-73
2022/06/08 05:01:29;;;;;;;6.65;3.92;;;15.70;99.90;;;;;;5074181;27;48310;-74
2022/06/08 05:03:55;;;;;;;8.48;4.15;;;15.80;99.90;;;;;;5065749;27;38763;-74
2022/06/08 05:06:21;;;;;;;8.60;3.97;;;15.80;99.90;;;;;;5059894;27;39016;-74
2022/06/08 05:08:47;;;;;;;4.47;3.53;;;15.80;99.90;;;;;;5059394;27;37756;-74
2022/06/08 05:11:14;;;;;;;4.60;3.53;;;15.80;99.90;;;;;;5058378;28;37690;-74
2022/06/08 05:13:40;;;;;;;6.70;3.90;;;15.80;99.90;;;;;;5075064;27;41622;-74
2022/06/08 05:16:07;;;;;;;4.90;3.63;;;15.90;99.90;;;;;;5109509;27;40250;-74
2022/06/08 05:18:34;;;;;;;4.32;3.40;;;16.00;99.90;;;;;;5077537;27;38098;-74
2022/06/08 05:21:00;;;;;;;5.05;3.65;;;16.00;99.90;;;;;;5073723;28;38052;-74
2022/06/08 05:23:31;;;;;;;8.68;3.63;;;16.10;99.90;;;;;;5065688;27;48247;-74
2022/06/08 05:25:58;;;;;;;4.95;3.30;;;16.20;99.90;;;;;;5065063;27;38331;-74
2022/06/08 05:28:24;;;;;;;3.95;3.40;;;16.10;99.90;;;;;;5061617;27;38239;-74
2022/06/08 05:30:51;;;;;;;7.70;3.72;;;16.20;99.90;;;;;;5090243;27;38151;-75
2022/06/08 05:33:17;;;;;;;4.22;3.55;;;16.30;99.90;;;;;;5074340;27;38338;-76
2022/06/08 05:35:44;;;;;;;6.63;3.42;;;16.40;99.90;;;;;;5078149;27;39361;-76
2022/06/08 05:38:10;;;;;;;6.47;3.60;;;16.50;99.90;;;;;;5075689;27;37157;-76
2022/06/08 05:40:37;;;;;;;9.60;3.63;;;16.50;99.90;;;;;;5072669;27;36642;-76
2022/06/08 05:43:05;;;;;;;4.82;3.75;;;16.60;99.90;;;;;;5056215;27;40644;-77
2022/06/08 05:45:32;;;;;;;7.05;3.80;;;16.70;99.90;;;;;;5051489;28;39319;-76
2022/06/08 05:47:58;;;;;;;5.75;3.80;;;16.80;99.90;;;;;;5056092;28;38360;-75
2022/06/08 05:50:26;;;;;;;6.43;3.40;;;16.70;99.90;;;;;;5053151;28;36236;-76
2022/06/08 05:52:53;;;;;;;4.57;3.42;;;16.80;99.90;;;;;;5054088;28;39722;-76
2022/06/08 05:55:21;;;;;;;6.15;4.38;;;16.80;99.90;;;;;;5052754;28;39464;-76
2022/06/08 05:57:48;;;;;;;6.32;4.43;;;16.80;99.90;;;;;;5059033;28;38391;-76
2022/06/08 06:00:17;;;;;;;6.25;4.60;;;16.80;99.90;;;;;;5061409;28;36378;-76
2022/06/08 06:02:44;;;;;;;9.10;5.20;;;16.90;99.90;;;;;;5066559;27;38646;-76
2022/06/08 06:05:12;;;;;;;6.30;5.35;;;16.80;99.90;;;;;;5064785;27;39731;-76
2022/06/08 06:07:39;;;;;;;9.70;4.82;;;16.80;99.90;;;;;;5066433;28;38829;-76
2022/06/08 06:10:06;;;;;;;8.18;5.25;;;16.90;99.90;;;;;;5065178;28;38154;-76
2022/06/08 06:12:34;;;;;;;8.25;5.22;;;16.90;99.90;;;;;;5054199;27;39563;-76
2022/06/08 06:15:01;;;;;;;7.68;5.50;;;16.90;99.90;;;;;;5077300;27;39709;-78
2022/06/08 06:17:28;;;;;;;11.18;5.20;;;16.80;99.90;;;;;;5074529;27;47558;-76
2022/06/08 06:19:56;;;;;;;7.75;5.13;;;16.80;99.90;;;;;;5076670;28;37097;-76
2022/06/08 06:22:22;;;;;;;6.35;5.10;;;16.90;99.90;;;;;;5065011;28;39002;-74
2022/06/08 06:24:48;;;;;;;12.00;5.97;;;16.90;99.90;;;;;;5061098;28;39440;-76
2022/06/08 06:27:14;;;;;;;7.75;5.88;;;17.00;99.90;;;;;;5060935;28;39491;-77
2022/06/08 06:29:41;;;;;;;9.98;5.70;;;16.80;99.90;;;;;;5085211;27;37448;-75
2022/06/08 06:32:21;;;;;;;11.45;6.53;;;16.70;99.90;;;;;;5078572;27;39612;-76
2022/06/08 06:34:47;;;;;;;11.63;5.85;;;16.80;99.90;;;;;;5114952;27;37418;-76
2022/06/08 06:37:14;;;;;;;7.47;5.88;;;16.80;99.90;;;;;;5106144;27;40430;-76
2022/06/08 06:39:40;;;;;;;7.68;5.57;;;16.80;99.90;;;;;;5079527;27;37934;-76
2022/06/08 06:42:12;;;;;;;9.52;5.75;;;16.80;99.90;;;;;;5082809;27;38931;-76
2022/06/08 06:44:38;;;;;;;9.77;6.10;;;16.80;99.90;;;;;;5078466;27;40290;-76
2022/06/08 06:47:04;;;;;;;9.77;6.90;;;16.90;99.90;;;;;;5086247;27;38605;-77
2022/06/08 06:49:30;;;;;;;11.27;6.00;;;16.90;99.90;;;;;;5068141;27;37416;-76
2022/06/08 06:51:57;;;;;;;8.55;6.28;;;17.00;99.90;;;;;;5058362;28;38466;-76
2022/06/08 06:54:24;;;;;;;8.13;5.40;;;17.10;99.90;;;;;;5083682;27;39868;-76
2022/06/08 06:56:50;;;;;;;8.40;5.60;;;17.20;99.90;;;;;;5081597;28;39850;-76
2022/06/08 06:59:16;;;;;;;6.65;5.28;;;17.30;99.90;;;;;;5079055;27;37943;-76
2022/06/08 07:01:42;;;;;;;7.32;5.85;;;17.40;99.90;;;;;;5060374;28;40054;-76
2022/06/08 07:04:08;;;;;;;9.30;5.22;;;17.40;99.90;;;;;;5055164;28;39655;-76
2022/06/08 07:06:34;;;;;;;7.43;5.32;;;17.50;99.90;;;;;;5056151;28;38539;-77
2022/06/08 07:09:01;;;;;;;9.65;4.50;;;17.50;99.90;;;;;;5057837;28;37049;-77
2022/06/08 07:11:35;;;;;;;8.18;4.68;;;17.60;99.90;;;;;;5062775;28;48904;-76
2022/06/08 07:14:03;;;;;;;8.32;5.03;;;17.60;99.90;;;;;;5055980;28;40764;-78
2022/06/08 07:16:30;;;;;;;7.97;4.65;;;17.60;99.90;;;;;;5080664;28;48168;-77
2022/06/08 07:18:56;;;;;;;6.85;4.70;;;17.30;99.90;;;;;;5081777;27;35687;-77
2022/06/08 07:21:22;;;;;;;8.00;5.15;;;17.30;99.90;;;;;;5084326;27;39217;-76
2022/06/08 07:23:48;;;;;;;9.82;5.05;;;17.60;99.90;;;;;;5070277;27;39264;-78
2022/06/08 07:26:15;;;;;;;9.15;5.05;;;17.60;99.90;;;;;;5084275;27;38809;-77
2022/06/08 07:28:41;;;;;;;7.28;4.68;;;17.60;99.90;;;;;;5086174;28;38559;-77
2022/06/08 07:31:12;;;;;;;8.43;5.00;;;17.70;99.90;;;;;;5084066;27;40656;-77
2022/06/08 07:33:39;;;;;;;10.40;5.63;;;17.60;99.90;;;;;;5080258;27;38483;-79
2022/06/08 07:36:05;;;;;;;7.85;5.00;;;17.50;99.90;;;;;;5073296;27;38881;-78
2022/06/08 07:38:32;;;;;;;7.88;5.70;;;17.60;99.90;;;;;;5100886;27;38232;-80
2022/06/08 07:40:58;;;;;;;9.70;5.20;;;17.50;99.90;;;;;;5062023;28;39755;-77
2022/06/08 07:43:25;;;;;;;10.65;5.93;;;17.40;99.90;;;;;;5059193;28;38517;-78
2022/06/08 07:45:51;;;;;;;5.60;4.72;;;17.70;99.90;;;;;;5058500;28;39698;-76
2022/06/08 07:51:02;;;;;;;11.45;5.43;;;18.20;99.90;;;;;;5062884;28;39305;-77
2022/06/08 07:53:28;;;;;;;8.15;4.93;;;18.00;99.90;;;;;;5061209;28;39163;-77
2022/06/08 07:55:54;;;;;;;7.50;5.32;;;18.10;99.90;;;;;;5097557;27;38731;-77
2022/06/08 07:58:20;;;;;;;10.00;6.00;;;18.20;99.90;;;;;;5070529;28;37967;-78
2022/06/08 08:00:49;;;;;;;10.30;4.90;;;18.40;99.90;;;;;;5069396;28;39841;-76
2022/06/08 08:03:18;;;;;;;8.85;5.68;;;18.40;99.90;;;;;;5085851;27;36525;-76
2022/06/08 08:05:45;;;;;;;8.00;4.72;;;18.60;99.90;;;;;;5083861;27;38225;-77
2022/06/08 08:08:12;;;;;;;7.97;4.68;;;18.70;99.90;;;;;;5098726;27;36977;-79
2022/06/08 08:10:38;;;;;;;8.50;4.20;;;18.60;99.90;;;;;;5077001;28;39374;-76
2022/06/08 08:13:07;;;;;;;6.18;4.22;;;18.50;99.90;;;;;;5082070;27;38970;-77
2022/06/08 08:15:33;;;;;;;8.13;3.90;;;18.70;99.90;;;;;;5063295;28;38838;-79
2022/06/08 08:18:00;;;;;;;5.97;3.53;;;18.80;99.90;;;;;;5060495;28;37857;-77
2022/06/08 08:20:28;;;;;;;6.72;3.60;;;18.70;99.90;;;;;;5059883;28;39626;-78
2022/06/08 08:22:56;;;;;;;9.25;3.92;;;18.60;99.90;;;;;;5055713;28;38444;-76
2022/06/08 08:25:23;;;;;;;7.60;3.47;;;18.40;99.90;;;;;;5062642;27;36890;-77
2022/06/08 08:27:51;;;;;;;11.30;3.97;;;18.10;99.90;;;;;;5096968;28;38151;-79
2022/06/08 08:30:20;;;;;;;6.93;4.32;;;18.10;99.90;;;;;;5057977;28;38438;-78
2022/06/08 08:32:46;;;;;;;8.65;4.53;;;18.00;99.90;;;;;;5062702;28;40608;-77
2022/06/08 08:35:15;;;;;;;10.27;4.20;;;17.80;99.90;;;;;;5081873;27;36706;-78
2022/06/08 08:37:43;;;;;;;8.00;4.40;;;17.80;99.90;;;;;;5082549;27;40148;-77
2022/06/08 08:40:38;;;;;;;13.80;5.03;;;17.60;99.90;;;;;;5082597;27;39723;-77
2022/06/08 08:43:09;;;;;;;9.25;4.80;;;17.70;99.90;;;;;;5062440;28;39117;-77
2022/06/08 08:46:01;;;;;;;8.32;4.85;;;17.50;99.90;;;;;;5062815;28;38420;-77
2022/06/08 08:48:31;;;;;;;8.38;4.75;;;17.50;99.90;;;;;;5072953;27;49129;-78
2022/06/08 08:51:31;;;;;;;9.20;5.57;;;17.20;99.90;;;;;;5083371;28;37914;-78
2022/06/08 08:54:03;;;;;;;8.50;5.80;;;17.00;99.90;;;;;;5056569;28;47537;-77
2022/06/08 08:56:36;;;;;;;10.68;5.65;;;16.90;99.90;;;;;;5071366;27;47684;-79
2022/06/08 08:59:16;;;;;;;7.80;5.90;;;16.90;99.90;;;;;;5070647;27;38158;-82
2022/06/08 09:01:46;;;;;;;9.18;5.25;;;16.80;99.90;;;;;;5066788;28;37813;-77
2022/06/08 09:04:34;;;;;;;8.90;5.13;;;16.70;99.90;;;;;;5076233;27;38771;-76
2022/06/08 09:07:10;;;;;;;11.63;5.55;;;16.70;99.90;;;;;;5059992;28;39160;-78
2022/06/08 09:09:37;;;;;;;11.80;5.53;;;16.60;99.90;;;;;;5079695;27;48976;-80
2022/06/08 09:12:03;;;;;;;12.73;4.43;;;16.70;99.90;;;;;;5081622;27;38840;-80
2022/06/08 09:14:58;;;;;;;11.07;4.93;;;16.60;99.90;;;;;;5080842;27;38114;-78
2022/06/08 09:17:40;;;;;;;7.60;5.28;;;16.60;99.90;;;;;;5067441;27;38868;-75
2022/06/08 09:20:26;;;;;;;12.43;5.10;;;16.70;99.90;;;;;;5068525;28;36531;-77
2022/06/08 09:22:55;;;;;;;7.85;5.63;;;16.50;99.90;;;;;;5056168;27;39578;-76
2022/06/08 09:25:34;;;;;;;9.15;6.90;;;16.60;99.90;;;;;;5062223;28;37907;-75
2022/06/08 09:28:02;;;;;;;13.73;7.10;;;16.60;99.90;;;;;;5059925;28;38627;-74
2022/06/08 09:30:32;;;;;;;10.80;7.18;;;16.60;99.90;;;;;;5052640;28;46997;-74
2022/06/08 09:33:13;;;;;;;9.82;7.88;;;16.50;99.90;;;;;;5065082;28;38238;-77
2022/06/08 09:35:55;;;;;;;15.10;6.57;;;16.60;99.90;;;;;;5077350;28;47227;-76
2022/06/08 09:38:23;;;;;;;;;;;16.40;99.90;;;;;;5057761;27;38312;-76
2022/06/08 09:41:14;;;;;;;11.77;3.80;;;16.30;99.90;;;;;;5061252;28;38377;-76
2022/06/08 09:44:01;;;;;;;10.68;3.15;;;16.30;99.90;;;;;;5075829;28;47135;-77
2022/06/08 09:53:10;;;;;;;11.18;2.70;;;16.00;99.90;;;;;;5070713;27;49350;-77
2022/06/08 09:56:00;;;;;;;10.73;2.90;;;16.10;99.90;;;;;;5079175;27;47378;-79
2022/06/08 09:59:09;;;;;;;8.82;2.20;;;16.00;99.90;;;;;;5083497;27;47237;-75
2022/06/08 10:01:39;;;;;;;9.55;2.60;;;16.00;99.90;;;;;;5067757;27;49239;-75
2022/06/08 10:04:29;;;;;;;11.57;2.97;;;16.00;99.90;;;;;;5054917;28;36981;-75
2022/06/08 10:07:16;;;;;;;10.27;2.95;;;15.90;99.90;;;;;;5061733;27;38719;-74
2022/06/08 10:09:45;;;;;;;10.80;3.25;;;15.90;99.90;;;;;;5057917;28;47311;-75
2022/06/08 10:12:22;;;;;;;8.57;2.55;;;15.80;99.90;;;;;;5091684;27;38809;-75
2022/06/08 10:14:55;;;;;;;8.68;2.85;;;15.70;99.90;;;;;;5071409;27;40476;-75
2022/06/08 10:17:27;;;;;;;9.52;3.95;;;15.70;99.90;;;;;;5074950;28;38877;-75
2022/06/08 10:20:13;;;;;;;5.45;2.38;;;15.60;99.90;;;;;;5072030;28;40003;-74
2022/06/08 10:22:46;;;;;;;10.70;2.95;;;15.60;99.90;;;;;;5068176;28;47058;-76
2022/06/08 10:25:26;;;;;;;6.82;1.88;;;15.50;99.90;;;;;;5050246;28;37012;-76
2022/06/08 10:27:59;;;;;;;9.00;1.73;;;15.30;99.90;;;;;;5056820;28;39083;-75
2022/06/08 10:30:51;;;;;;;6.90;2.05;;;15.30;99.90;;;;;;5080239;27;39404;-75
2022/06/08 10:33:26;;;;;;;5.93;1.98;;;15.30;99.90;;;;;;5071629;27;36262;-74
2022/06/08 10:35:55;;;;;;;9.35;2.35;;;15.20;99.90;;;;;;5060408;27;37378;-75
2022/06/08 10:38:36;;;;;;;4.43;1.70;;;15.20;99.90;;;;;;5076839;27;39223;-76
2022/06/08 10:44:02;;;;;;;7.95;2.30;;;15.20;99.90;;;;;;5060244;28;38889;-75
2022/06/08 10:46:45;;;;;;;8.50;2.60;;;15.10;99.90;;;;;;5076655;28;48178;-74
2022/06/08 10:49:30;;;;;;;11.93;3.22;;;15.10;99.90;;;;;;5075564;27;40331;-76
2022/06/08 10:52:24;;;;;;;10.00;2.50;;;15.10;99.90;;;;;;5103609;27;38912;-76
2022/06/08 10:55:13;;;;;;;8.43;2.72;;;15.10;99.90;;;;;;5078428;27;48341;-75
2022/06/08 10:57:47;;;;;;;6.80;2.70;;;15.10;99.90;;;;;;5080512;27;48504;-74
2022/06/08 11:00:19;;;;;;;10.98;3.70;;;15.10;99.90;;;;;;5080077;27;40187;-74
2022/06/08 11:02:54;;;;;;;9.35;2.92;;;15.10;99.90;;;;;;5078786;27;38421;-75
2022/06/08 11:05:32;;;;;;;9.30;4.00;;;15.10;99.90;;;;;;5078620;27;39312;-74
2022/06/08 11:08:01;;;;;;;11.18;3.20;;;15.10;99.90;;;;;;5077066;27;37503;-74
2022/06/08 11:10:50;;;;;;;10.40;3.58;;;15.00;99.90;;;;;;5087195;27;40215;-73
2022/06/08 11:13:22;;;;;;;10.43;3.25;;;15.00;99.90;;;;;;5091987;27;39933;-74
2022/06/08 11:15:51;;;;;;;12.52;3.97;;;15.00;99.90;;;;;;5069351;27;37802;-75
2022/06/08 11:18:26;;;;;;;6.32;2.95;;;15.00;99.90;;;;;;5058683;28;36874;-75
2022/06/08 11:21:14;;;;;;;8.07;3.17;;;15.00;99.90;;;;;;5053350;28;38936;-74
2022/06/08 11:23:52;;;;;;;4.90;3.17;;;15.00;99.90;;;;;;5061282;28;47382;-74
2022/06/08 11:26:23;;;;;;;5.88;2.63;;;15.10;99.90;;;;;;5082197;27;36399;-74
2022/06/08 11:29:22;;;;;;;6.53;2.35;;;15.10;99.90;;;;;;5080495;27;38079;-73
2022/06/08 11:31:54;;;;;;;6.43;2.75;;;15.00;99.90;;;;;;5075418;28;45327;-73
2022/06/08 11:34:20;;;;;;;7.00;3.08;;;15.20;99.90;;;;;;5076315;27;39392;-75
2022/06/08 11:37:14;;;;;;;6.85;2.40;;;15.20;99.90;;;;;;5085128;28;38145;-73
2022/06/08 11:39:46;;;;;;;5.70;2.60;;;15.20;99.90;;;;;;5079038;27;48564;-74
2022/06/08 11:42:24;;;;;;;7.40;3.03;;;15.10;99.90;;;;;;5076503;27;38939;-75
2022/06/08 11:45:05;;;;;;;4.97;2.25;;;15.10;99.90;;;;;;5080520;28;39206;-74
2022/06/08 11:47:48;;;;;;;5.95;2.42;;;15.00;99.90;;;;;;5080906;28;47288;-73
2022/06/08 11:50:18;;;;;;;7.13;2.83;;;15.10;99.90;;;;;;5078013;27;37947;-74
2022/06/08 11:52:47;;;;;;;3.50;2.50;;;15.00;99.90;;;;;;5083755;27;39309;-74
2022/06/08 11:55:19;;;;;;;6.47;3.10;;;15.00;99.90;;;;;;5087343;27;39909;-73
2022/06/08 11:58:16;;;;;;;5.20;2.92;;;15.00;99.90;;;;;;5066544;27;38482;-73
2022/06/08 12:00:52;;;;;;;5.68;2.60;;;15.10;99.90;;;;;;5072970;27;47120;-73
2022/06/08 12:03:34;;;;;;;6.43;3.17;;;15.20;99.90;;;;;;5060538;27;40575;-73
2022/06/08 12:06:08;;;;;;;6.53;3.00;;;15.20;99.90;;;;;;5085539;27;39560;-73
2022/06/08 12:08:42;;;;;;;8.13;3.40;;;15.20;99.90;;;;;;5066711;28;46577;-74
2022/06/08 12:11:14;;;;;;;8.60;3.75;;;15.20;99.90;;;;;;5079765;27;37219;-74
2022/06/08 12:13:55;;;;;;;7.63;3.92;;;15.20;99.90;;;;;;5078081;28;39646;-73
2022/06/08 12:16:24;;;;;;;7.67;3.80;;;15.30;99.90;;;;;;5070397;28;39169;-74
2022/06/08 12:19:04;;;;;;;6.60;3.85;;;15.20;99.90;;;;;;5058156;28;38082;-73
2022/06/08 12:21:39;;;;;;;7.28;4.22;;;15.20;99.90;;;;;;5077248;27;48793;-74
2022/06/08 12:24:11;;;;;;;4.97;3.60;;;15.30;99.90;;;;;;5064404;27;39499;-73
2022/06/08 12:26:52;;;;;;;9.35;4.30;;;15.30;99.90;;;;;;5059524;27;39159;-73
2022/06/08 12:29:40;;;;;;;8.68;3.92;;;15.40;99.90;;;;;;5061523;28;38805;-72
2022/06/08 12:32:06;;;;;;;4.18;3.20;;;15.30;99.90;;;;;;5065213;28;38240;-74
2022/06/08 12:34:39;;;;;;;6.15;3.58;;;15.40;99.90;;;;;;5059122;28;39735;-73
2022/06/08 12:37:28;;;;;;;8.27;3.90;;;15.30;99.90;;;;;;5060587;28;38650;-74
2022/06/08 12:40:00;;;;;;;6.53;3.40;;;15.30;99.90;;;;;;5073083;28;40026;-73
2022/06/08 12:42:32;;;;;;;4.93;3.40;;;15.30;99.90;;;;;;5061354;28;39866;-73
2022/06/08 12:45:00;;;;;;;4.50;2.90;;;15.40;99.90;;;;;;5052849;28;39343;-73
2022/06/08 12:47:41;;;;;;;3.85;3.17;;;15.60;99.90;;;;;;5080394;28;39395;-73
2022/06/08 12:50:13;;;;;;;4.65;3.15;;;15.60;99.90;;;;;;5114151;27;38857;-74
2022/06/08 12:52:41;;;;;;;5.90;2.55;;;15.60;99.90;;;;;;5080436;27;37142;-73
2022/06/08 12:55:23;;;;;;;4.68;2.58;;;15.80;99.90;;;;;;5080168;27;38729;-73
2022/06/08 12:57:49;;;;;;;3.53;2.35;;;15.90;99.90;;;;;;5087501;27;38259;-74
2022/06/08 13:00:26;;;;;;;4.05;3.15;;;15.90;99.90;;;;;;5071568;27;38869;-73
2022/06/08 13:02:52;;;;;;;3.00;2.30;;;16.00;99.90;;;;;;5064099;27;37317;-74
2022/06/08 13:05:25;;;;;;;2.55;2.35;;;16.00;99.90;;;;;;5061787;28;38224;-74
2022/06/08 13:07:55;;;;;;;4.40;2.80;;;15.80;99.90;;;;;;5053863;28;40080;-73
2022/06/08 13:10:27;;;;;;;7.68;3.17;;;15.80;99.90;;;;;;5057586;28;39027;-74
2022/06/08 13:12:58;;;;;;;3.08;2.78;;;15.90;99.90;;;;;;5059947;28;37737;-74
2022/06/08 13:15:29;;;;;;;5.20;3.88;;;16.00;99.90;;;;;;5065662;28;38777;-74
2022/06/08 13:17:56;;;;;;;3.75;3.38;;;15.90;99.90;;;;;;5079664;28;39742;-73
2022/06/08 13:20:28;;;;;;;5.35;3.95;;;15.90;99.90;;;;;;5068059;27;37870;-74
2022/06/08 13:22:55;;;;;;;6.35;5.15;;;16.00;99.90;;;;;;5058111;28;37116;-74